Time;durP1;ratioP1;P1;durP2;ratioP2;P2;SDS_P1;SDS_P2;PMS_P1;PMS_P2;Temp;Humidity;BMP_temperature;BMP_pressure;BME280_temperature;BME280_humidity;BME280_pressure;Samples;Min_cycle;Max_cycle;Signal;HPM_P1;HPM_P2
2021/01/06 00:00:42;;;;;;;14.52;5.75;;;0.70;62.50;;;;;;5026930;28;80631;-71
2021/01/06 00:03:13;;;;;;;10.18;5.57;;;0.60;62.50;;;;;;5008855;28;82815;-71
2021/01/06 00:05:39;;;;;;;11.93;5.72;;;0.60;62.60;;;;;;5027284;28;80626;-71
2021/01/06 00:08:05;;;;;;;8.98;4.40;;;0.60;62.60;;;;;;5027213;28;80240;-73
2021/01/06 00:10:32;;;;;;;11.95;4.72;;;0.50;62.90;;;;;;5027185;28;80426;-69
2021/01/06 00:12:59;;;;;;;10.63;5.10;;;0.50;62.90;;;;;;5027271;28;80810;-68
2021/01/06 00:15:32;;;;;;;11.68;5.53;;;0.40;63.20;;;;;;5027226;28;80615;-69
2021/01/06 00:17:58;;;;;;;17.08;6.57;;;0.40;63.20;;;;;;5026807;28;80161;-70
2021/01/06 00:20:26;;;;;;;13.35;5.45;;;0.40;63.40;;;;;;5008836;28;80914;-69
2021/01/06 00:22:52;;;;;;;12.60;5.75;;;0.30;63.60;;;;;;5008646;28;81307;-69
2021/01/06 00:25:42;;;;;;;10.15;5.55;;;0.30;63.70;;;;;;5026926;28;80600;-69
2021/01/06 00:28:12;;;;;;;10.98;5.60;;;0.30;63.70;;;;;;5027001;28;80260;-70
2021/01/06 00:30:41;;;;;;;14.57;6.00;;;0.20;63.60;;;;;;5026462;28;79749;-70
2021/01/06 00:33:09;;;;;;;11.20;5.93;;;0.20;63.60;;;;;;5026956;28;80224;-71
2021/01/06 00:35:36;;;;;;;11.80;6.25;;;0.30;63.70;;;;;;5026634;28;80615;-69
2021/01/06 00:38:03;;;;;;;12.10;5.37;;;0.20;63.60;;;;;;5026682;28;80035;-69
2021/01/06 00:40:35;;;;;;;12.13;5.97;;;0.30;63.80;;;;;;5026604;28;80624;-70
2021/01/06 00:43:06;;;;;;;14.63;5.53;;;0.20;63.80;;;;;;5026532;28;80214;-71
2021/01/06 00:45:33;;;;;;;11.40;5.63;;;0.30;63.80;;;;;;5026555;28;80592;-70
2021/01/06 00:47:59;;;;;;;23.03;5.93;;;0.20;63.70;;;;;;5027257;28;80398;-70
2021/01/06 00:50:27;;;;;;;9.48;5.57;;;0.20;63.70;;;;;;5026669;28;80415;-68
2021/01/06 00:53:04;;;;;;;10.63;5.67;;;0.20;63.80;;;;;;5026276;28;81279;-70
2021/01/06 00:55:29;;;;;;;13.23;6.20;;;0.20;64.00;;;;;;5026455;28;80613;-70
2021/01/06 00:57:55;;;;;;;9.77;5.00;;;0.10;64.00;;;;;;5026592;28;80199;-67
2021/01/06 01:00:24;;;;;;;11.45;5.38;;;0.10;64.30;;;;;;5026023;28;81818;-68
2021/01/06 01:02:50;;;;;;;12.93;5.75;;;0.00;64.40;;;;;;5025985;28;80858;-68
2021/01/06 01:05:22;;;;;;;13.70;5.47;;;0.00;64.50;;;;;;5026508;28;80512;-71
2021/01/06 01:07:49;;;;;;;13.27;5.70;;;0.00;64.40;;;;;;5026399;28;80608;-72
2021/01/06 01:10:33;;;;;;;13.30;6.28;;;0.00;64.40;;;;;;5026703;28;79923;-71
2021/01/06 01:13:02;;;;;;;13.80;6.13;;;0.00;64.60;;;;;;5026472;28;79786;-73
2021/01/06 01:15:30;;;;;;;12.93;7.90;;;-3276.70;64.80;;;;;;5025962;28;79619;-72
2021/01/06 01:17:56;;;;;;;12.88;6.88;;;-3276.70;64.60;;;;;;5026095;28;80395;-71
2021/01/06 01:20:22;;;;;;;14.53;6.63;;;0.00;64.60;;;;;;5007190;28;82717;-72
2021/01/06 01:22:48;;;;;;;14.07;7.43;;;-3276.70;64.70;;;;;;5025921;28;79783;-72
2021/01/06 01:25:20;;;;;;;10.77;5.80;;;-3276.70;64.70;;;;;;5026082;28;80950;-67
2021/01/06 01:27:45;;;;;;;15.37;6.47;;;-3276.70;64.80;;;;;;5026231;28;80921;-68
2021/01/06 01:30:17;;;;;;;11.30;5.47;;;-3276.70;64.70;;;;;;5025904;28;80670;-68
2021/01/06 01:32:44;;;;;;;9.77;5.57;;;-3276.70;64.70;;;;;;5026311;28;79739;-69
2021/01/06 01:35:13;;;;;;;16.88;6.85;;;-3276.70;64.70;;;;;;5026105;28;80600;-69
2021/01/06 01:37:42;;;;;;;13.53;5.97;;;-3276.70;64.70;;;;;;5026662;28;79803;-72
2021/01/06 01:40:10;;;;;;;12.60;6.53;;;-3276.60;64.90;;;;;;5025925;28;80619;-70
2021/01/06 01:42:36;;;;;;;12.43;6.00;;;-3276.50;64.90;;;;;;5025981;28;80552;-70
2021/01/06 01:45:04;;;;;;;13.67;5.57;;;-3276.50;64.90;;;;;;5029399;28;80470;-70
2021/01/06 01:47:42;;;;;;;24.50;7.10;;;-3276.50;65.00;;;;;;5029279;28;80441;-71
2021/01/06 01:50:08;;;;;;;15.43;7.53;;;-3276.40;65.00;;;;;;5009172;28;81108;-69
2021/01/06 01:52:46;;;;;;;15.60;7.40;;;-3276.40;65.00;;;;;;5029715;28;79739;-70
2021/01/06 01:55:15;;;;;;;13.90;7.03;;;-3276.50;65.10;;;;;;5029113;28;80526;-70
2021/01/06 01:57:46;;;;;;;13.63;7.10;;;-3276.50;64.90;;;;;;5028926;28;80301;-69
2021/01/06 02:00:17;;;;;;;14.83;7.73;;;-3276.50;64.90;;;;;;5028960;28;80668;-69
2021/01/06 02:03:03;;;;;;;14.53;7.13;;;-3276.40;64.90;;;;;;5029082;28;80315;-68
2021/01/06 02:05:57;;;;;;;14.17;7.30;;;-3276.40;65.10;;;;;;5028884;28;80667;-69
2021/01/06 02:08:41;;;;;;;15.43;7.57;;;-3276.30;65.30;;;;;;5029025;28;79834;-68
2021/01/06 02:11:15;;;;;;;20.47;9.17;;;-3276.30;65.30;;;;;;5028880;28;80671;-69
2021/01/06 02:13:42;;;;;;;15.40;8.23;;;-3276.30;65.50;;;;;;5029137;28;79808;-70
2021/01/06 02:16:22;;;;;;;15.27;7.60;;;-3276.30;65.50;;;;;;5028983;28;80651;-69
2021/01/06 02:18:48;;;;;;;15.23;7.50;;;-3276.30;65.50;;;;;;5028560;28;80410;-69
2021/01/06 02:21:20;;;;;;;16.17;7.03;;;-3276.30;65.70;;;;;;5028440;28;82224;-70
2021/01/06 02:23:52;;;;;;;17.00;7.63;;;-3276.30;65.50;;;;;;5028496;28;80538;-70
2021/01/06 02:26:21;;;;;;;14.13;6.53;;;-3276.30;65.60;;;;;;5028874;28;80521;-69
2021/01/06 02:28:48;;;;;;;12.37;5.87;;;-3276.30;65.60;;;;;;5010611;28;79833;-68
2021/01/06 02:31:15;;;;;;;13.90;7.27;;;-3276.30;65.50;;;;;;5028358;28;80705;-69
2021/01/06 02:33:42;;;;;;;12.20;6.57;;;-3276.30;65.50;;;;;;5008947;28;80177;-73
2021/01/06 02:36:08;;;;;;;12.93;7.00;;;-3276.30;65.70;;;;;;5028314;28;80577;-68
2021/01/06 02:38:34;;;;;;;14.40;6.53;;;-3276.30;65.70;;;;;;5028533;28;80511;-70
2021/01/06 02:41:01;;;;;;;15.30;6.33;;;-3276.30;65.70;;;;;;5028042;28;80643;-68
2021/01/06 02:43:28;;;;;;;14.20;6.30;;;-3276.30;65.70;;;;;;5028435;28;80250;-69
2021/01/06 02:45:55;;;;;;;13.60;6.70;;;-3276.20;65.90;;;;;;5009578;28;82844;-70
2021/01/06 02:48:22;;;;;;;15.93;7.03;;;-3276.20;65.90;;;;;;5028254;28;80437;-70
2021/01/06 02:50:52;;;;;;;13.13;6.67;;;-3276.20;66.00;;;;;;5028497;28;80663;-69
2021/01/06 02:53:29;;;;;;;16.80;7.73;;;-3276.20;66.00;;;;;;5027829;28;79781;-70
2021/01/06 02:55:56;;;;;;;18.60;7.70;;;-3276.20;66.10;;;;;;5028379;28;80502;-68
2021/01/06 02:58:23;;;;;;;13.03;7.27;;;-3276.10;66.30;;;;;;5009804;28;81984;-74
2021/01/06 03:00:54;;;;;;;12.63;6.67;;;-3276.10;66.20;;;;;;5027936;28;79914;-69
2021/01/06 03:03:25;;;;;;;12.87;6.73;;;-3276.10;66.20;;;;;;5028263;28;80189;-68
2021/01/06 03:06:06;;;;;;;14.33;6.93;;;-3276.10;66.30;;;;;;5028044;28;79755;-68
2021/01/06 03:08:34;;;;;;;11.73;5.80;;;-3276.00;66.50;;;;;;5028087;28;80367;-68
2021/01/06 03:11:01;;;;;;;14.90;6.10;;;-3276.00;66.40;;;;;;5028051;28;80622;-69
2021/01/06 03:13:28;;;;;;;11.90;5.93;;;-3276.00;66.30;;;;;;5027974;28;80590;-69
2021/01/06 03:15:54;;;;;;;16.73;7.10;;;-3276.00;66.40;;;;;;5028008;28;80871;-69
2021/01/06 03:18:20;;;;;;;10.37;5.97;;;-3276.00;66.30;;;;;;5027999;28;80217;-68
2021/01/06 03:20:48;;;;;;;12.07;6.73;;;-3276.00;66.20;;;;;;5027943;28;80411;-69
2021/01/06 03:23:22;;;;;;;15.17;7.23;;;-3276.00;66.40;;;;;;5027666;28;79993;-68
2021/01/06 03:25:48;;;;;;;15.13;7.20;;;-3275.90;66.30;;;;;;5027742;28;81059;-71
2021/01/06 03:28:16;;;;;;;11.57;6.70;;;-3275.90;66.30;;;;;;5027864;28;80231;-70
2021/01/06 03:30:43;;;;;;;14.47;7.00;;;-3275.80;66.50;;;;;;5027454;28;80445;-70
2021/01/06 03:33:24;;;;;;;12.57;6.90;;;-3275.80;66.40;;;;;;5027338;28;80502;-68
2021/01/06 03:36:01;;;;;;;14.97;6.87;;;-3275.90;66.40;;;;;;5027890;28;79799;-69
2021/01/06 03:38:32;;;;;;;11.47;5.97;;;-3275.90;66.40;;;;;;5027689;28;80208;-69
2021/01/06 03:40:59;;;;;;;16.43;7.00;;;-3275.80;66.40;;;;;;5027558;28;80655;-72
2021/01/06 03:43:28;;;;;;;11.20;6.30;;;-3275.80;66.30;;;;;;5027750;28;79763;-71
2021/01/06 03:46:03;;;;;;;12.93;6.20;;;-3275.80;66.30;;;;;;5027502;28;80899;-70
2021/01/06 03:48:42;;;;;;;13.00;7.37;;;-3275.80;66.40;;;;;;5027903;28;80075;-68
2021/01/06 03:51:52;;;;;;;13.60;7.77;;;-3275.80;66.40;;;;;;5027573;28;80066;-71
2021/01/06 03:54:25;;;;;;;19.37;8.93;;;-3275.70;66.30;;;;;;5027661;28;79971;-73
2021/01/06 03:56:53;;;;;;;15.98;8.88;;;-3275.60;66.60;;;;;;5027209;28;80594;-71
2021/01/06 03:59:28;;;;;;;12.50;7.13;;;-3275.60;66.80;;;;;;5027396;28;80378;-68
2021/01/06 04:02:11;;;;;;;15.07;7.43;;;-3275.60;66.70;;;;;;5007764;28;80751;-68
2021/01/06 04:04:50;;;;;;;15.15;6.72;;;-3275.60;66.80;;;;;;5027189;28;80294;-69
2021/01/06 04:07:27;;;;;;;12.93;6.10;;;-3275.60;66.70;;;;;;5026554;28;80615;-68
2021/01/06 04:09:58;;;;;;;12.90;6.67;;;-3275.60;66.70;;;;;;5027024;28;80320;-68
2021/01/06 04:12:24;;;;;;;16.33;7.40;;;-3275.60;66.60;;;;;;5027122;28;80715;-69
2021/01/06 04:14:50;;;;;;;11.00;6.10;;;-3275.60;66.60;;;;;;5026740;28;80333;-69
2021/01/06 04:17:24;;;;;;;14.73;7.37;;;-3275.60;66.60;;;;;;5026980;28;80541;-69
2021/01/06 04:19:59;;;;;;;11.80;6.83;;;-3275.60;66.60;;;;;;5026832;28;80342;-68
2021/01/06 04:22:51;;;;;;;12.33;7.17;;;-3275.70;66.50;;;;;;5027335;28;80435;-70
2021/01/06 04:25:22;;;;;;;15.80;7.30;;;-3275.70;66.40;;;;;;5027514;28;80045;-69
2021/01/06 04:27:53;;;;;;;11.13;6.37;;;-3275.70;66.40;;;;;;5027034;28;80549;-67
2021/01/06 04:30:34;;;;;;;15.03;6.93;;;-3275.70;66.40;;;;;;5026759;28;80633;-68
2021/01/06 04:33:04;;;;;;;13.23;7.37;;;-3275.70;66.40;;;;;;5023779;28;80616;-67
2021/01/06 04:35:30;;;;;;;12.53;6.80;;;-3275.70;66.40;;;;;;5026452;28;80341;-67
2021/01/06 04:37:58;;;;;;;10.93;6.33;;;-3275.70;66.50;;;;;;5026867;28;80594;-68
2021/01/06 04:40:31;;;;;;;11.20;6.63;;;-3275.60;66.50;;;;;;5026761;28;80073;-68
2021/01/06 04:43:00;;;;;;;14.73;7.93;;;-3275.60;66.60;;;;;;5026600;28;81190;-68
2021/01/06 04:45:32;;;;;;;11.77;5.93;;;-3275.50;66.70;;;;;;5026853;28;80415;-68
2021/01/06 04:48:30;;;;;;;12.33;5.97;;;-3275.50;66.70;;;;;;5026619;28;80378;-72
2021/01/06 04:51:08;;;;;;;11.83;6.40;;;-3275.50;66.60;;;;;;4987447;28;80500;-67
2021/01/06 04:53:55;;;;;;;14.33;7.20;;;-3275.50;66.50;;;;;;5008212;28;81477;-73
2021/01/06 04:56:24;;;;;;;12.73;6.97;;;-3275.40;66.60;;;;;;5025881;28;80559;-72
2021/01/06 04:59:23;;;;;;;11.50;6.17;;;-3275.40;66.80;;;;;;5026800;28;80719;-73
2021/01/06 05:02:26;;;;;;;13.57;6.17;;;-3275.30;66.90;;;;;;5007811;28;82542;-72
2021/01/06 05:05:13;;;;;;;13.73;6.13;;;-3275.30;66.80;;;;;;5026954;28;80691;-75
2021/01/06 05:08:15;;;;;;;12.33;5.77;;;-3275.30;66.80;;;;;;5026679;28;80418;-71
2021/01/06 05:10:59;;;;;;;11.93;6.13;;;-3275.30;66.70;;;;;;5026889;28;80731;-72
2021/01/06 05:13:34;;;;;;;11.43;6.00;;;-3275.30;66.80;;;;;;5008277;28;80672;-71
2021/01/06 05:16:04;;;;;;;14.87;7.33;;;-3275.30;66.80;;;;;;5026669;28;80700;-69
2021/01/06 05:18:30;;;;;;;11.90;6.73;;;-3275.30;67.00;;;;;;5029796;28;80452;-73
2021/01/06 05:20:57;;;;;;;13.03;5.53;;;-3275.30;67.20;;;;;;5011997;28;79923;-71
2021/01/06 05:23:27;;;;;;;13.60;6.67;;;-3275.30;67.30;;;;;;5030359;28;79773;-70
2021/01/06 05:25:54;;;;;;;11.03;6.70;;;-3275.20;67.40;;;;;;4995363;28;81243;-72
2021/01/06 05:28:22;;;;;;;11.07;6.43;;;-3275.20;67.50;;;;;;5030629;28;80922;-74
2021/01/06 05:30:53;;;;;;;12.63;6.83;;;-3275.20;67.40;;;;;;5030601;28;81127;-73
2021/01/06 05:33:27;;;;;;;15.17;6.87;;;-3275.20;67.40;;;;;;5030099;28;80420;-72
2021/01/06 05:35:53;;;;;;;13.60;5.90;;;-3275.20;67.40;;;;;;5030209;28;79835;-71
2021/01/06 05:38:20;;;;;;;11.83;5.50;;;-3275.20;67.50;;;;;;5030055;28;80217;-69
2021/01/06 05:40:46;;;;;;;10.97;5.87;;;-3275.20;67.60;;;;;;5029919;28;80574;-68
2021/01/06 05:43:17;;;;;;;9.40;5.83;;;-3275.10;67.70;;;;;;5029891;28;80335;-73
2021/01/06 05:45:47;;;;;;;14.23;6.67;;;-3275.20;67.60;;;;;;5011609;28;83259;-72
2021/01/06 05:48:39;;;;;;;12.37;6.20;;;-3275.20;67.50;;;;;;5030223;28;79623;-73
2021/01/06 05:51:10;;;;;;;11.20;6.40;;;-3275.20;67.60;;;;;;5030056;28;80509;-70
2021/01/06 05:54:13;;;;;;;11.30;5.63;;;-3275.20;67.60;;;;;;5029876;28;80378;-72
2021/01/06 05:56:49;;;;;;;13.50;6.20;;;-3275.20;67.70;;;;;;5029953;28;80626;-74
2021/01/06 05:59:27;;;;;;;13.93;6.27;;;-3275.10;67.90;;;;;;5029963;28;80367;-72
2021/01/06 06:02:07;;;;;;;11.37;5.83;;;-3275.10;67.80;;;;;;5030073;28;80790;-75
2021/01/06 06:05:00;;;;;;;9.97;5.63;;;-3275.10;67.90;;;;;;5029988;28;79906;-69
2021/01/06 06:07:47;;;;;;;13.70;6.13;;;-3275.10;67.80;;;;;;5030407;28;80393;-73
2021/01/06 06:10:31;;;;;;;15.13;5.73;;;-3275.00;67.90;;;;;;5030288;28;80404;-69
2021/01/06 06:13:20;;;;;;;13.82;5.97;;;-3275.10;67.80;;;;;;5029934;28;80654;-74
2021/01/06 06:15:57;;;;;;;13.77;6.80;;;-3275.00;67.90;;;;;;5029639;28;80367;-75
2021/01/06 06:18:48;;;;;;;12.53;7.17;;;-3275.00;67.90;;;;;;5029808;28;80658;-69
2021/01/06 06:21:38;;;;;;;13.27;6.43;;;-3275.00;67.90;;;;;;5029517;28;80322;-72
2021/01/06 06:24:21;;;;;;;12.80;6.80;;;-3275.00;67.90;;;;;;5029723;28;80852;-74
2021/01/06 06:27:28;;;;;;;15.20;7.30;;;-3275.00;67.90;;;;;;5029306;28;80298;-70
2021/01/06 06:30:11;;;;;;;13.37;6.37;;;-3275.10;67.90;;;;;;4995320;28;80044;-74
2021/01/06 06:32:39;;;;;;;12.93;6.33;;;-3275.00;67.80;;;;;;5010773;28;80783;-75
2021/01/06 06:35:05;;;;;;;10.43;5.00;;;-3275.00;67.70;;;;;;5010883;28;79853;-73
2021/01/06 06:37:31;;;;;;;11.77;5.07;;;-3275.00;67.90;;;;;;5028977;28;80137;-73
2021/01/06 06:39:56;;;;;;;13.50;5.90;;;-3274.90;67.80;;;;;;5029578;28;80728;-73
2021/01/06 06:42:23;;;;;;;13.10;6.67;;;-3274.90;67.90;;;;;;5029356;28;80343;-74
2021/01/06 06:45:03;;;;;;;12.23;6.33;;;-3274.90;68.00;;;;;;5029490;28;81135;-70
2021/01/06 06:47:52;;;;;;;14.83;7.90;;;-3274.90;68.20;;;;;;5029673;28;79906;-73
2021/01/06 06:50:46;;;;;;;13.83;6.67;;;-3274.80;68.30;;;;;;5029794;28;79869;-68
2021/01/06 06:53:43;;;;;;;12.05;6.68;;;-3274.80;68.50;;;;;;5029247;28;80349;-72
2021/01/06 06:56:34;;;;;;;10.90;6.00;;;-3274.70;68.60;;;;;;5029190;28;80888;-70
2021/01/06 06:59:09;;;;;;;11.83;5.87;;;-3274.60;68.70;;;;;;5033201;28;80417;-77
2021/01/06 07:01:45;;;;;;;12.37;6.03;;;-3274.70;68.60;;;;;;5032694;28;79888;-73
2021/01/06 07:04:24;;;;;;;14.83;6.53;;;-3274.70;68.40;;;;;;5031650;28;79809;-78
2021/01/06 07:06:59;;;;;;;12.80;6.37;;;-3274.70;68.40;;;;;;5030438;28;79826;-70
2021/01/06 07:09:33;;;;;;;16.17;6.37;;;-3274.80;68.30;;;;;;5026827;28;80627;-64
2021/01/06 07:12:06;;;;;;;14.80;7.00;;;-3274.80;68.40;;;;;;5028463;28;80830;-62
2021/01/06 07:14:37;;;;;;;13.65;7.18;;;-3274.80;68.20;;;;;;5028730;28;80268;-62
2021/01/06 07:17:08;;;;;;;15.00;6.80;;;-3274.90;68.10;;;;;;5010058;28;82683;-63
2021/01/06 07:19:49;;;;;;;16.50;7.70;;;-3274.90;68.10;;;;;;5010430;28;83490;-66
2021/01/06 07:22:24;;;;;;;17.00;7.80;;;-3274.80;68.20;;;;;;5028800;28;80665;-62
2021/01/06 07:24:56;;;;;;;20.03;8.93;;;-3274.80;68.20;;;;;;5028425;28;80383;-63
2021/01/06 07:27:28;;;;;;;16.97;8.20;;;-3274.90;68.10;;;;;;5028718;28;81158;-62
2021/01/06 07:29:54;;;;;;;19.57;9.03;;;-3274.90;68.00;;;;;;5028394;28;80513;-63
2021/01/06 07:32:46;;;;;;;13.97;7.47;;;-3274.90;67.90;;;;;;5027841;28;80173;-69
2021/01/06 07:35:28;;;;;;;17.57;7.43;;;-3275.00;67.90;;;;;;5011312;28;81225;-64
2021/01/06 07:38:07;;;;;;;18.20;8.97;;;-3275.00;67.80;;;;;;5011400;28;80594;-65
2021/01/06 07:41:02;;;;;;;23.70;9.00;;;-3275.00;67.70;;;;;;5030113;28;80688;-64
2021/01/06 07:43:31;;;;;;;17.63;8.33;;;-3275.00;67.60;;;;;;5029861;28;80109;-64
2021/01/06 07:45:59;;;;;;;19.03;8.37;;;-3275.00;67.60;;;;;;5010506;28;80437;-62
2021/01/06 07:48:51;;;;;;;18.73;9.17;;;-3275.00;67.50;;;;;;5008625;28;82300;-62
2021/01/06 07:51:32;;;;;;;22.30;8.67;;;-3275.10;67.60;;;;;;5028234;28;80286;-62
2021/01/06 07:54:22;;;;;;;28.07;8.93;;;-3275.10;67.40;;;;;;5009567;28;81737;-62
2021/01/06 07:57:07;;;;;;;19.43;8.23;;;-3275.10;67.40;;;;;;5028267;28;80348;-63
2021/01/06 07:59:51;;;;;;;19.13;7.50;;;-3275.10;67.40;;;;;;5028112;28;81120;-61
2021/01/06 08:02:44;;;;;;;17.83;7.40;;;-3275.10;67.40;;;;;;5009537;28;82414;-62
2021/01/06 08:05:27;;;;;;;13.32;6.80;;;-3275.10;67.40;;;;;;5028140;28;81197;-62
2021/01/06 08:08:13;;;;;;;15.18;7.28;;;-3275.20;67.30;;;;;;5010076;28;80762;-62
2021/01/06 08:10:45;;;;;;;34.13;9.80;;;-3275.20;67.10;;;;;;5008940;28;80963;-62
2021/01/06 08:13:22;;;;;;;18.83;8.93;;;-3275.30;67.00;;;;;;5050254;28;76003;-63
2021/01/06 08:15:52;;;;;;;19.33;7.97;;;-3275.30;66.90;;;;;;5043830;27;80472;-64
2021/01/06 08:18:36;;;;;;;23.17;10.20;;;-3275.30;66.80;;;;;;5043864;27;80344;-63
2021/01/06 08:21:22;;;;;;;21.27;8.27;;;-3275.40;66.80;;;;;;5039509;28;84820;-63
2021/01/06 08:24:08;;;;;;;23.27;7.90;;;-3275.50;66.60;;;;;;5041901;28;85672;-63
2021/01/06 08:26:35;;;;;;;20.43;8.47;;;-3275.50;66.40;;;;;;5043938;28;80117;-64
2021/01/06 08:29:17;;;;;;;22.57;8.43;;;-3275.60;66.20;;;;;;5043883;27;80893;-64
2021/01/06 08:31:44;;;;;;;18.67;7.33;;;-3275.70;66.00;;;;;;5041653;28;80955;-62
2021/01/06 08:34:25;;;;;;;14.23;6.17;;;-3275.70;65.90;;;;;;5041766;28;81379;-63
2021/01/06 08:37:04;;;;;;;18.47;6.60;;;-3275.80;65.70;;;;;;5043864;28;80842;-62
2021/01/06 08:39:35;;;;;;;13.53;6.37;;;-3275.90;65.50;;;;;;5043001;27;80344;-62
2021/01/06 08:42:20;;;;;;;11.67;6.67;;;-3276.00;65.20;;;;;;5041985;28;81823;-62
2021/01/06 08:44:58;;;;;;;12.40;5.83;;;-3276.20;64.70;;;;;;5041866;28;80532;-64
2021/01/06 08:47:40;;;;;;;21.50;7.50;;;-3276.40;64.20;;;;;;5041808;28;81148;-62
2021/01/06 08:50:35;;;;;;;13.50;6.13;;;-3276.50;63.70;;;;;;5043555;27;80295;-63
2021/01/06 08:53:03;;;;;;;12.73;6.27;;;-3276.70;63.30;;;;;;5041330;28;82035;-63
2021/01/06 08:55:38;;;;;;;20.07;9.93;;;0.00;62.70;;;;;;5041598;28;81329;-63
2021/01/06 08:58:12;;;;;;;17.67;9.27;;;0.00;62.50;;;;;;5043324;27;80508;-63
2021/01/06 09:01:00;;;;;;;12.17;6.67;;;0.00;62.20;;;;;;5041726;28;80715;-63
2021/01/06 09:03:54;;;;;;;11.00;5.50;;;0.00;62.10;;;;;;5043302;28;81210;-64
2021/01/06 09:06:22;;;;;;;15.23;5.27;;;0.20;61.80;;;;;;5041601;28;83429;-63
2021/01/06 09:09:04;;;;;;;13.07;5.67;;;0.40;61.20;;;;;;5041552;28;83628;-64
2021/01/06 09:11:53;;;;;;;17.27;7.15;;;0.60;60.80;;;;;;5042961;28;80300;-64
2021/01/06 09:14:39;;;;;;;13.43;6.10;;;0.80;60.40;;;;;;5043023;27;80493;-63
2021/01/06 09:17:21;;;;;;;12.87;6.30;;;0.90;60.30;;;;;;5041374;28;82484;-62
2021/01/06 09:20:12;;;;;;;13.17;5.70;;;1.10;60.10;;;;;;5041370;28;81318;-64
2021/01/06 09:22:38;;;;;;;20.57;7.90;;;1.20;59.80;;;;;;5041202;27;80246;-63
2021/01/06 09:25:05;;;;;;;17.87;7.70;;;1.30;59.40;;;;;;5027515;28;82466;-63
2021/01/06 09:27:43;;;;;;;18.47;7.77;;;1.40;59.30;;;;;;5029608;28;80083;-65
2021/01/06 09:30:31;;;;;;;16.73;7.93;;;1.60;59.20;;;;;;5029609;28;81284;-64
2021/01/06 09:33:00;;;;;;;16.10;6.20;;;2.30;57.80;;;;;;5028312;28;81151;-64
2021/01/06 09:35:31;;;;;;;23.07;6.43;;;3.10;55.50;;;;;;5029303;28;80886;-63
2021/01/06 09:38:03;;;;;;;13.73;5.53;;;3.60;53.80;;;;;;5029327;28;80062;-64
2021/01/06 09:40:32;;;;;;;22.08;7.30;;;4.00;52.80;;;;;;5027622;28;82215;-64
2021/01/06 09:43:04;;;;;;;23.77;8.60;;;4.50;51.70;;;;;;5028779;28;80037;-64
2021/01/06 09:45:31;;;;;;;17.70;8.77;;;5.40;49.70;;;;;;5027693;28;81163;-64
2021/01/06 09:48:01;;;;;;;14.85;6.82;;;6.30;47.50;;;;;;5028978;28;80403;-63
2021/01/06 09:50:41;;;;;;;13.65;6.05;;;6.50;45.80;;;;;;5029067;28;81225;-64
2021/01/06 09:53:10;;;;;;;18.17;6.00;;;6.40;45.70;;;;;;5027213;28;83262;-64
2021/01/06 09:55:43;;;;;;;11.15;5.45;;;6.70;45.40;;;;;;5027372;28;79749;-64
2021/01/06 09:58:17;;;;;;;15.18;6.70;;;7.10;44.40;;;;;;5028772;28;79990;-63
2021/01/06 10:01:04;;;;;;;13.43;5.63;;;7.50;43.60;;;;;;5029080;28;80835;-63
2021/01/06 10:03:33;;;;;;;19.25;6.75;;;8.30;42.30;;;;;;5027427;28;80468;-65
2021/01/06 10:06:06;;;;;;;12.48;5.78;;;8.90;40.80;;;;;;5026980;28;81597;-64
2021/01/06 10:08:41;;;;;;;10.75;4.32;;;8.90;40.20;;;;;;5028842;28;80731;-64
2021/01/06 10:11:19;;;;;;;12.23;4.97;;;8.60;41.10;;;;;;5028377;28;80587;-64
2021/01/06 10:14:10;;;;;;;10.70;5.03;;;9.20;40.00;;;;;;5028934;28;80221;-64
2021/01/06 10:17:13;;;;;;;13.65;5.55;;;9.70;39.40;;;;;;5027124;28;84060;-63
2021/01/06 10:20:06;;;;;;;17.57;5.67;;;10.50;38.70;;;;;;5025010;28;80421;-64
2021/01/06 10:22:50;;;;;;;11.70;4.72;;;11.40;36.90;;;;;;5026647;28;80854;-63
2021/01/06 10:25:37;;;;;;;13.10;4.43;;;12.80;34.90;;;;;;5026756;28;82596;-62
2021/01/06 10:28:10;;;;;;;8.60;4.47;;;14.10;32.50;;;;;;5026853;28;80818;-62
2021/01/06 10:30:36;;;;;;;10.43;3.15;;;13.40;33.20;;;;;;5026758;28;80414;-61
2021/01/06 10:33:18;;;;;;;8.43;4.18;;;13.70;33.20;;;;;;5028317;28;80995;-62
2021/01/06 10:36:05;;;;;;;8.45;3.58;;;14.40;32.30;;;;;;5027375;28;80680;-62
2021/01/06 10:38:40;;;;;;;8.98;2.83;;;15.90;30.30;;;;;;5026334;28;79867;-62
2021/01/06 10:41:26;;;;;;;6.07;2.60;;;17.30;28.60;;;;;;5028242;28;79819;-62
2021/01/06 10:43:58;;;;;;;8.15;3.22;;;18.40;27.70;;;;;;5028169;28;80563;-62
2021/01/06 10:46:45;;;;;;;11.52;2.80;;;19.60;25.70;;;;;;5026377;28;80508;-61
2021/01/06 10:49:31;;;;;;;6.10;3.47;;;20.00;25.30;;;;;;5028226;28;79840;-61
2021/01/06 10:51:57;;;;;;;7.35;2.97;;;20.30;25.40;;;;;;5015282;28;82419;-60
2021/01/06 10:54:31;;;;;;;5.68;3.08;;;20.40;24.70;;;;;;5028371;28;79838;-61
2021/01/06 10:57:00;;;;;;;10.18;3.20;;;19.40;25.50;;;;;;5027833;28;80525;-61
2021/01/06 10:59:26;;;;;;;6.00;2.63;;;18.00;26.80;;;;;;5026410;28;80777;-60
2021/01/06 11:02:18;;;;;;;12.82;3.45;;;17.60;27.60;;;;;;5026160;28;80522;-63
2021/01/06 11:05:02;;;;;;;7.45;2.78;;;18.90;26.50;;;;;;5026481;28;82876;-62
2021/01/06 11:07:51;;;;;;;5.95;2.63;;;20.40;24.70;;;;;;5026437;28;82052;-62
2021/01/06 11:10:21;;;;;;;9.00;3.95;;;20.70;24.60;;;;;;5026246;28;80705;-62
2021/01/06 11:12:56;;;;;;;7.85;2.97;;;20.70;24.20;;;;;;5025818;28;80979;-62
2021/01/06 11:15:27;;;;;;;8.43;3.42;;;19.90;24.80;;;;;;5026170;28;82700;-62
2021/01/06 11:18:22;;;;;;;6.28;2.85;;;21.00;24.00;;;;;;5026109;28;80266;-63
2021/01/06 11:21:16;;;;;;;7.50;3.08;;;22.00;23.10;;;;;;5012285;28;82888;-62
2021/01/06 11:23:44;;;;;;;8.65;2.85;;;21.90;23.10;;;;;;5026069;28;81038;-62
2021/01/06 11:26:31;;;;;;;6.63;3.35;;;22.20;22.70;;;;;;5025649;28;83384;-61
2021/01/06 11:29:20;;;;;;;7.03;3.38;;;22.30;22.70;;;;;;5027481;28;80208;-62
2021/01/06 11:32:01;;;;;;;6.05;3.08;;;21.70;23.10;;;;;;5017080;28;82550;-64
2021/01/06 11:34:33;;;;;;;5.72;3.35;;;22.30;23.00;;;;;;5027473;28;80188;-63
2021/01/06 11:37:00;;;;;;;6.72;3.30;;;23.90;21.30;;;;;;5027351;28;81060;-64
2021/01/06 11:39:38;;;;;;;14.55;4.45;;;25.00;20.40;;;;;;5025720;28;81949;-64
2021/01/06 11:42:42;;;;;;;5.60;2.97;;;25.30;20.30;;;;;;5027048;28;80641;-65
2021/01/06 11:45:14;;;;;;;8.07;3.78;;;25.50;19.70;;;;;;5025527;28;80342;-65
2021/01/06 11:48:05;;;;;;;9.38;4.40;;;24.40;20.60;;;;;;5024537;28;82924;-65
2021/01/06 11:50:44;;;;;;;5.00;2.88;;;23.70;21.30;;;;;;5025072;28;82194;-64
2021/01/06 11:53:31;;;;;;;6.05;3.45;;;23.90;21.00;;;;;;5023729;28;80976;-64
2021/01/06 11:56:28;;;;;;;5.40;3.13;;;23.70;21.00;;;;;;5025476;28;80318;-64
2021/01/06 11:59:17;;;;;;;6.75;3.22;;;24.20;20.90;;;;;;5027309;28;79843;-63
2021/01/06 12:02:03;;;;;;;5.88;3.33;;;25.20;20.20;;;;;;5027141;28;79721;-66
2021/01/06 12:05:14;;;;;;;7.18;3.30;;;26.60;18.90;;;;;;5025219;28;79849;-65
2021/01/06 12:08:17;;;;;;;6.50;4.00;;;27.50;18.50;;;;;;5009984;28;82429;-65
2021/01/06 12:10:52;;;;;;;5.40;3.43;;;25.70;19.50;;;;;;5025240;28;83238;-64
2021/01/06 12:13:57;;;;;;;7.28;3.90;;;24.30;20.60;;;;;;5024999;28;81921;-63
2021/01/06 12:16:28;;;;;;;8.88;3.72;;;23.30;21.10;;;;;;5026850;28;79871;-68
2021/01/06 12:19:12;;;;;;;12.10;4.10;;;22.50;22.00;;;;;;5026468;28;80760;-67
2021/01/06 12:22:04;;;;;;;10.73;4.50;;;23.50;21.30;;;;;;5025260;28;80869;-66
2021/01/06 12:24:30;;;;;;;7.85;3.53;;;25.00;20.20;;;;;;5018535;28;80001;-66
2021/01/06 12:27:05;;;;;;;8.73;4.35;;;25.70;19.40;;;;;;5026732;28;80421;-66
2021/01/06 12:29:52;;;;;;;7.80;3.80;;;26.00;19.00;;;;;;5026296;28;80313;-67
2021/01/06 12:32:30;;;;;;;8.35;3.90;;;26.50;18.60;;;;;;5026243;28;81256;-67
2021/01/06 12:35:24;;;;;;;6.85;4.18;;;27.50;18.10;;;;;;5026342;28;80335;-69
2021/01/06 12:38:11;;;;;;;7.70;3.55;;;28.20;17.40;;;;;;5026718;28;80539;-67
2021/01/06 12:40:52;;;;;;;6.22;3.60;;;27.40;18.00;;;;;;5025979;28;79943;-67
2021/01/06 12:43:26;;;;;;;10.15;3.58;;;27.00;17.80;;;;;;5025004;28;79765;-65
2021/01/06 12:46:18;;;;;;;9.07;3.90;;;25.90;18.60;;;;;;5026314;28;79583;-66
2021/01/06 12:49:01;;;;;;;5.38;3.58;;;26.20;18.50;;;;;;5026246;28;81058;-66
2021/01/06 12:51:33;;;;;;;10.27;3.95;;;25.90;18.70;;;;;;5026554;28;80293;-65
2021/01/06 12:54:08;;;;;;;11.95;3.83;;;24.40;19.70;;;;;;5026506;28;80465;-66
2021/01/06 12:56:49;;;;;;;5.95;3.15;;;22.80;21.00;;;;;;5024677;28;82512;-65
2021/01/06 12:59:24;;;;;;;5.78;3.08;;;21.50;22.10;;;;;;5026466;28;81361;-66
2021/01/06 13:01:59;;;;;;;6.80;3.53;;;21.80;21.80;;;;;;5028294;28;81544;-65
2021/01/06 13:04:35;;;;;;;13.90;5.70;;;21.40;22.10;;;;;;5027863;28;82939;-66
2021/01/06 13:07:16;;;;;;;6.28;3.45;;;21.40;22.40;;;;;;5028148;28;80701;-65
2021/01/06 13:09:54;;;;;;;9.30;3.90;;;21.10;22.40;;;;;;5028534;28;83775;-66